Time;durP1;ratioP1;P1;durP2;ratioP2;P2;SDS_P1;SDS_P2;PMS_P1;PMS_P2;Temp;Humidity;BMP_temperature;BMP_pressure;BME280_temperature;BME280_humidity;BME280_pressure;Samples;Min_cycle;Max_cycle;Signal;HPM_P1;HPM_P2
2022/03/08 00:02:24;;;;;;;2.50;2.30;;;0.20;97.40;;;;;;5048499;28;20187;-73
2022/03/08 00:04:50;;;;;;;3.83;2.60;;;0.20;97.60;;;;;;5056265;28;20180;-73
2022/03/08 00:07:17;;;;;;;3.63;2.73;;;0.10;97.40;;;;;;5056757;28;20290;-73
2022/03/08 00:09:43;;;;;;;6.00;2.97;;;0.10;97.60;;;;;;5056318;28;20172;-73
2022/03/08 00:12:10;;;;;;;2.20;2.07;;;0.10;97.60;;;;;;5047963;28;20291;-73
2022/03/08 00:14:35;;;;;;;3.00;2.80;;;0.10;97.70;;;;;;5053225;28;20186;-73
2022/03/08 00:17:03;;;;;;;4.27;2.70;;;0.10;97.70;;;;;;5049616;28;20175;-73
2022/03/08 00:19:28;;;;;;;4.13;2.77;;;0.10;97.80;;;;;;5051546;28;21022;-73
2022/03/08 00:21:54;;;;;;;2.80;2.57;;;0.10;97.60;;;;;;5052979;28;20187;-73
2022/03/08 00:24:21;;;;;;;2.47;2.27;;;0.10;97.70;;;;;;5050419;28;20180;-73
2022/03/08 00:26:48;;;;;;;2.83;2.63;;;0.10;97.60;;;;;;5055376;28;20691;-73
2022/03/08 00:29:13;;;;;;;7.97;3.97;;;0.10;97.70;;;;;;5054618;28;20179;-73
2022/03/08 00:31:39;;;;;;;5.03;2.33;;;0.10;97.60;;;;;;5049407;28;20259;-74
2022/03/08 00:34:05;;;;;;;5.03;2.93;;;0.10;97.60;;;;;;5052692;28;20183;-73
2022/03/08 00:36:31;;;;;;;3.63;2.60;;;0.10;97.50;;;;;;5054632;28;20183;-73
2022/03/08 00:38:57;;;;;;;5.90;3.10;;;0.10;97.50;;;;;;5055719;28;20262;-73
2022/03/08 00:41:23;;;;;;;2.43;2.33;;;0.10;97.40;;;;;;5055261;28;20641;-74
2022/03/08 00:43:49;;;;;;;3.00;2.70;;;0.10;97.20;;;;;;5052166;28;20179;-73
2022/03/08 00:46:18;;;;;;;5.27;2.47;;;0.20;97.10;;;;;;5046999;28;20266;-73
2022/03/08 00:48:44;;;;;;;4.80;2.73;;;0.20;97.00;;;;;;5055390;28;20271;-73
2022/03/08 00:51:11;;;;;;;3.17;2.17;;;0.20;96.90;;;;;;5059243;28;20377;-73
2022/03/08 00:53:37;;;;;;;2.67;2.53;;;0.20;96.70;;;;;;5053557;28;20171;-73
2022/03/08 00:56:03;;;;;;;2.80;2.23;;;0.20;96.40;;;;;;5050721;28;20696;-73
2022/03/08 00:58:29;;;;;;;3.90;2.63;;;0.20;96.40;;;;;;5053513;28;20584;-73
2022/03/08 01:00:55;;;;;;;3.93;3.33;;;0.20;96.30;;;;;;5051063;28;20191;-73
2022/03/08 01:03:21;;;;;;;3.00;2.70;;;0.20;96.20;;;;;;5052932;28;20214;-73
2022/03/08 01:05:47;;;;;;;4.10;2.23;;;0.20;96.20;;;;;;5056324;28;20195;-73
2022/03/08 01:08:14;;;;;;;3.13;2.93;;;0.30;96.20;;;;;;5055355;28;20223;-73
2022/03/08 01:10:40;;;;;;;2.67;2.47;;;0.30;96.00;;;;;;5050058;28;20182;-73
2022/03/08 01:13:06;;;;;;;3.33;2.67;;;0.30;96.00;;;;;;5048973;28;20190;-73
2022/03/08 01:15:32;;;;;;;3.97;3.03;;;0.40;95.70;;;;;;5048700;28;20179;-73
2022/03/08 01:17:58;;;;;;;4.40;2.23;;;0.40;95.60;;;;;;5055824;28;20186;-73
2022/03/08 01:20:24;;;;;;;3.00;2.80;;;0.50;95.50;;;;;;5043670;28;20385;-73
2022/03/08 01:22:50;;;;;;;4.23;3.07;;;0.50;95.40;;;;;;5057332;28;20179;-73
2022/03/08 01:25:20;;;;;;;3.43;3.00;;;0.50;95.10;;;;;;5052208;28;20688;-73
2022/03/08 01:27:46;;;;;;;3.77;2.70;;;0.50;95.10;;;;;;5051347;28;20207;-73
2022/03/08 01:30:15;;;;;;;3.47;3.13;;;0.60;95.10;;;;;;5048137;28;20184;-73
2022/03/08 01:32:41;;;;;;;3.73;2.43;;;0.60;94.90;;;;;;5051590;28;20175;-73
2022/03/08 01:35:08;;;;;;;3.30;2.77;;;0.70;94.90;;;;;;5055124;28;20193;-72
2022/03/08 01:37:35;;;;;;;4.00;3.63;;;0.70;94.60;;;;;;5049558;28;20191;-73
2022/03/08 01:40:01;;;;;;;5.10;3.80;;;0.70;94.60;;;;;;5043605;28;20193;-73
2022/03/08 01:42:27;;;;;;;3.67;3.40;;;0.70;94.20;;;;;;5055552;28;20255;-72
2022/03/08 01:44:53;;;;;;;5.87;3.70;;;0.70;93.90;;;;;;5050838;28;20317;-73
2022/03/08 01:47:22;;;;;;;4.60;3.53;;;0.60;93.70;;;;;;5054057;28;20202;-73
2022/03/08 01:49:50;;;;;;;6.00;3.63;;;0.60;93.60;;;;;;5047708;28;20185;-73
2022/03/08 01:52:18;;;;;;;3.37;3.13;;;0.60;93.80;;;;;;5050624;28;20203;-72
2022/03/08 01:54:44;;;;;;;6.20;3.43;;;0.50;93.60;;;;;;5054002;28;20577;-72
2022/03/08 01:57:12;;;;;;;6.90;4.53;;;0.60;93.90;;;;;;5056596;28;20235;-72
2022/03/08 01:59:38;;;;;;;3.67;3.37;;;0.60;94.00;;;;;;5045072;28;20270;-72
2022/03/08 02:02:04;;;;;;;4.13;3.23;;;0.60;93.70;;;;;;5048044;28;20245;-73
2022/03/08 02:04:30;;;;;;;6.77;4.17;;;0.60;93.60;;;;;;5056943;28;20183;-73
2022/03/08 02:06:56;;;;;;;5.73;3.90;;;0.60;93.30;;;;;;5040580;28;20215;-73
2022/03/08 02:09:22;;;;;;;4.07;3.37;;;0.60;93.20;;;;;;5055418;28;20171;-73
2022/03/08 02:11:48;;;;;;;5.57;4.00;;;0.50;93.30;;;;;;5054327;28;20184;-72
2022/03/08 02:14:16;;;;;;;4.23;3.77;;;0.40;93.30;;;;;;5043400;28;20587;-72
2022/03/08 02:16:42;;;;;;;3.07;2.70;;;0.40;93.50;;;;;;5048874;28;20179;-73
2022/03/08 02:19:11;;;;;;;4.60;3.90;;;0.40;93.60;;;;;;5055923;28;20680;-73
2022/03/08 02:21:37;;;;;;;5.67;4.43;;;0.40;93.40;;;;;;5050564;28;20187;-73
2022/03/08 02:24:03;;;;;;;5.17;4.10;;;0.40;93.70;;;;;;5051749;28;20182;-73
2022/03/08 02:26:31;;;;;;;2.93;2.73;;;0.30;93.80;;;;;;5047887;28;20188;-72
2022/03/08 02:28:58;;;;;;;4.33;3.93;;;0.40;93.80;;;;;;5047617;28;20186;-72
2022/03/08 02:31:23;;;;;;;4.20;3.07;;;0.30;93.70;;;;;;5048406;28;20179;-74
2022/03/08 02:33:49;;;;;;;7.40;4.03;;;0.20;94.00;;;;;;5050532;28;20175;-72
2022/03/08 02:36:15;;;;;;;4.37;3.43;;;0.20;93.90;;;;;;5043810;28;20179;-72
2022/03/08 02:38:41;;;;;;;6.40;4.23;;;0.20;94.10;;;;;;5049178;28;20728;-73
2022/03/08 02:41:07;;;;;;;5.47;4.20;;;0.20;94.30;;;;;;5056686;28;20312;-73
2022/03/08 02:43:32;;;;;;;5.10;4.23;;;0.20;94.40;;;;;;5053352;28;20202;-73
2022/03/08 02:45:58;;;;;;;6.30;4.43;;;0.20;94.20;;;;;;5050929;28;20191;-73
2022/03/08 02:48:28;;;;;;;4.40;4.00;;;0.10;94.40;;;;;;5052050;28;20210;-74
2022/03/08 02:50:54;;;;;;;8.27;4.70;;;0.10;94.40;;;;;;5057458;28;20179;-74
2022/03/08 02:53:20;;;;;;;5.57;3.93;;;0.10;94.30;;;;;;5056619;28;20181;-74
2022/03/08 02:55:46;;;;;;;5.90;4.17;;;0.00;94.40;;;;;;5058093;28;20175;-74
2022/03/08 02:58:12;;;;;;;3.67;3.30;;;0.10;94.60;;;;;;5054913;28;20207;-74
2022/03/08 03:00:38;;;;;;;5.90;3.93;;;0.00;94.80;;;;;;5041476;28;20784;-74
2022/03/08 03:03:05;;;;;;;3.67;3.37;;;0.00;94.80;;;;;;5056267;28;20224;-74
2022/03/08 03:05:31;;;;;;;7.23;4.30;;;0.00;94.90;;;;;;5059350;28;20191;-74
2022/03/08 03:07:57;;;;;;;3.90;3.37;;;0.10;94.90;;;;;;5053964;28;20281;-74
2022/03/08 03:10:24;;;;;;;4.13;3.83;;;0.00;94.80;;;;;;5056572;28;20180;-74
2022/03/08 03:12:51;;;;;;;6.53;3.43;;;0.00;94.80;;;;;;5052577;28;20266;-74
2022/03/08 03:15:18;;;;;;;5.37;3.77;;;0.00;94.90;;;;;;5049294;28;20188;-74
2022/03/08 03:17:45;;;;;;;4.63;3.50;;;0.00;95.00;;;;;;5054108;28;20870;-74
2022/03/08 03:20:13;;;;;;;4.90;3.43;;;0.00;95.10;;;;;;5054629;28;20190;-74
2022/03/08 03:22:39;;;;;;;4.27;3.73;;;0.10;95.00;;;;;;5058338;28;20210;-74
2022/03/08 03:25:06;;;;;;;7.57;3.60;;;0.10;94.90;;;;;;5052059;28;20175;-74
2022/03/08 03:27:32;;;;;;;5.37;3.47;;;0.10;94.70;;;;;;5054196;28;20360;-75
2022/03/08 03:33:44;;;;;;;4.53;4.20;;;0.10;94.70;;;;;;4992924;28;20195;-74
2022/03/08 03:36:10;;;;;;;4.43;4.10;;;0.10;94.80;;;;;;4992317;28;20182;-73
2022/03/08 03:38:36;;;;;;;4.03;2.73;;;0.10;95.00;;;;;;4996360;28;20220;-73
2022/03/08 03:41:02;;;;;;;4.50;3.50;;;0.10;95.00;;;;;;4989661;28;20291;-73
2022/03/08 03:43:28;;;;;;;7.57;3.73;;;0.10;95.00;;;;;;4999473;28;20200;-75
2022/03/08 03:45:53;;;;;;;3.63;3.00;;;0.10;94.90;;;;;;4989317;28;20715;-74
2022/03/08 03:48:19;;;;;;;5.13;4.17;;;0.10;95.00;;;;;;4994221;28;21457;-74
2022/03/08 03:50:45;;;;;;;4.27;3.73;;;0.10;95.20;;;;;;4992421;28;20199;-74
2022/03/08 03:53:10;;;;;;;4.07;3.40;;;0.10;95.30;;;;;;4995677;28;20221;-73
2022/03/08 03:55:36;;;;;;;5.53;3.90;;;0.10;95.20;;;;;;4992304;28;20738;-73
2022/03/08 03:58:02;;;;;;;6.37;3.63;;;0.10;95.30;;;;;;4994930;28;20219;-73
2022/03/08 04:00:28;;;;;;;3.80;3.50;;;0.20;95.30;;;;;;4987242;28;21122;-74
2022/03/08 04:02:53;;;;;;;7.23;4.57;;;0.20;95.30;;;;;;4995549;28;20210;-74
2022/03/08 04:05:19;;;;;;;6.73;4.40;;;0.20;95.30;;;;;;4992327;28;20754;-73
2022/03/08 04:07:45;;;;;;;4.73;3.90;;;0.20;95.40;;;;;;4993905;28;20213;-74
2022/03/08 04:10:13;;;;;;;6.10;3.83;;;0.20;95.50;;;;;;5024817;28;20282;-72
2022/03/08 04:12:39;;;;;;;5.13;4.53;;;0.30;95.50;;;;;;5053752;28;20179;-73
2022/03/08 04:15:06;;;;;;;6.87;4.50;;;0.30;95.50;;;;;;5055386;28;20738;-73
2022/03/08 04:17:31;;;;;;;7.90;4.03;;;0.30;95.70;;;;;;5050129;28;20180;-73
2022/03/08 04:19:57;;;;;;;7.93;4.53;;;0.20;95.70;;;;;;5048346;28;20191;-73
2022/03/08 04:22:23;;;;;;;9.27;4.60;;;0.20;95.80;;;;;;5050530;28;20267;-72
2022/03/08 04:24:49;;;;;;;6.73;4.60;;;0.20;96.00;;;;;;5051547;28;20940;-73
2022/03/08 04:27:16;;;;;;;5.77;4.17;;;0.20;96.20;;;;;;5047620;28;20207;-72
2022/03/08 04:29:42;;;;;;;6.73;4.83;;;0.30;96.10;;;;;;5047111;28;20566;-73
2022/03/08 04:32:08;;;;;;;4.20;3.80;;;0.30;96.00;;;;;;5049434;28;20179;-74
2022/03/08 04:34:34;;;;;;;6.90;4.13;;;0.30;96.10;;;;;;5059691;28;20176;-74
2022/03/08 04:36:59;;;;;;;6.57;4.27;;;0.20;96.10;;;;;;5048907;28;20183;-74
2022/03/08 04:39:25;;;;;;;5.77;4.50;;;0.20;96.20;;;;;;5053401;28;20218;-74
2022/03/08 04:41:51;;;;;;;7.33;4.43;;;0.30;96.00;;;;;;5054188;28;20176;-74
2022/03/08 04:44:17;;;;;;;4.73;3.93;;;0.20;96.10;;;;;;5054771;28;20262;-74
2022/03/08 04:46:43;;;;;;;5.30;4.63;;;0.20;96.00;;;;;;5052280;28;20181;-74
2022/03/08 04:49:10;;;;;;;10.07;4.20;;;0.20;96.00;;;;;;5051577;28;20179;-75
2022/03/08 04:51:35;;;;;;;5.97;3.97;;;0.20;95.90;;;;;;5055886;28;20721;-74
2022/03/08 04:54:01;;;;;;;6.90;4.33;;;0.20;96.00;;;;;;5050888;28;20187;-74
2022/03/08 04:56:27;;;;;;;7.73;5.23;;;0.20;95.90;;;;;;5048523;28;20180;-74
2022/03/08 04:58:53;;;;;;;5.80;4.47;;;0.20;95.90;;;;;;5046983;28;20237;-74
2022/03/08 05:01:19;;;;;;;4.77;4.20;;;0.10;96.00;;;;;;5053523;28;21021;-74
2022/03/08 05:03:45;;;;;;;4.47;3.97;;;0.10;95.90;;;;;;5047836;28;20235;-74
2022/03/08 05:06:10;;;;;;;5.50;4.03;;;0.10;96.10;;;;;;5048132;28;20224;-74
2022/03/08 05:08:36;;;;;;;5.27;3.53;;;0.00;96.10;;;;;;5048216;28;20780;-74
2022/03/08 05:11:02;;;;;;;5.00;4.40;;;0.00;96.20;;;;;;5051277;28;20187;-75
2022/03/08 05:13:29;;;;;;;7.80;4.50;;;0.00;96.40;;;;;;5054125;28;20643;-74
2022/03/08 05:15:55;;;;;;;4.90;4.00;;;-0.10;96.60;;;;;;5050259;28;20197;-74
2022/03/08 05:18:21;;;;;;;6.33;4.40;;;-0.10;96.80;;;;;;5046203;28;20226;-75
2022/03/08 05:20:47;;;;;;;4.90;4.47;;;-0.10;96.90;;;;;;5054271;28;20206;-75
2022/03/08 05:23:13;;;;;;;6.53;4.83;;;-0.10;96.90;;;;;;5050969;28;20188;-74
2022/03/08 05:25:39;;;;;;;9.13;6.03;;;-0.10;97.00;;;;;;5047219;28;20767;-74
2022/03/08 05:28:06;;;;;;;7.13;4.53;;;-0.10;97.00;;;;;;5051371;28;20218;-74
2022/03/08 05:30:32;;;;;;;8.47;4.33;;;-0.10;97.00;;;;;;5056422;28;20244;-74
2022/03/08 05:32:58;;;;;;;5.77;3.90;;;-0.10;97.00;;;;;;5051108;28;20215;-74
2022/03/08 05:35:23;;;;;;;6.63;4.67;;;-0.10;96.90;;;;;;5047543;28;20273;-74
2022/03/08 05:37:49;;;;;;;8.07;4.43;;;-0.10;97.00;;;;;;5051257;28;20192;-74
2022/03/08 05:40:15;;;;;;;7.53;4.40;;;-0.10;97.00;;;;;;5043853;28;20183;-73
2022/03/08 05:42:41;;;;;;;5.67;4.67;;;0.00;96.80;;;;;;5047425;28;20845;-74
2022/03/08 05:45:08;;;;;;;8.63;5.57;;;0.00;97.10;;;;;;5053957;28;20193;-74
2022/03/08 05:47:35;;;;;;;9.13;5.30;;;0.00;96.90;;;;;;5049485;28;20216;-74
2022/03/08 05:50:02;;;;;;;10.70;6.13;;;0.00;96.90;;;;;;5056784;28;20237;-77
2022/03/08 05:52:27;;;;;;;7.57;5.97;;;0.00;96.90;;;;;;5065000;28;20187;-77
2022/03/08 05:54:53;;;;;;;6.83;4.73;;;0.00;97.20;;;;;;5065652;28;20578;-75
2022/03/08 05:57:19;;;;;;;13.10;5.80;;;0.00;97.10;;;;;;5058896;28;20186;-77
2022/03/08 05:59:44;;;;;;;12.97;6.03;;;0.00;97.20;;;;;;5065065;28;20671;-76
2022/03/08 06:02:11;;;;;;;8.80;4.63;;;0.00;97.20;;;;;;5057615;28;20183;-76
2022/03/08 06:04:37;;;;;;;8.60;5.57;;;0.00;97.20;;;;;;5057616;28;20657;-76
2022/03/08 06:07:03;;;;;;;7.07;5.03;;;0.10;97.10;;;;;;5062332;28;20207;-76
2022/03/08 06:09:29;;;;;;;6.70;5.53;;;0.20;96.80;;;;;;5066019;28;20248;-76
2022/03/08 06:11:54;;;;;;;5.77;4.57;;;0.20;96.50;;;;;;5060725;28;20211;-76
2022/03/08 06:14:20;;;;;;;7.43;6.13;;;0.30;96.50;;;;;;5064306;28;20175;-77
2022/03/08 06:16:46;;;;;;;6.87;4.97;;;0.30;96.40;;;;;;5068535;28;20184;-77
2022/03/08 06:19:12;;;;;;;8.23;5.27;;;0.20;96.20;;;;;;5075246;28;20214;-77
2022/03/08 06:21:37;;;;;;;8.87;5.10;;;0.20;96.00;;;;;;5057330;28;20188;-75
2022/03/08 06:24:03;;;;;;;12.73;4.93;;;0.30;96.10;;;;;;5048729;28;20183;-74
2022/03/08 06:26:31;;;;;;;5.13;4.80;;;0.30;96.10;;;;;;5051959;28;20307;-76
2022/03/08 06:28:57;;;;;;;7.93;5.37;;;0.40;96.00;;;;;;5045757;28;20203;-75
2022/03/08 06:31:23;;;;;;;7.77;5.20;;;0.40;95.80;;;;;;5043932;28;20179;-76
2022/03/08 06:33:48;;;;;;;11.30;6.03;;;0.40;95.80;;;;;;5050297;28;20272;-76
2022/03/08 06:36:14;;;;;;;7.83;5.43;;;0.40;95.50;;;;;;5039951;28;20210;-76
2022/03/08 06:38:40;;;;;;;5.53;4.93;;;0.40;95.40;;;;;;5041372;28;20223;-74
2022/03/08 06:41:06;;;;;;;7.17;4.20;;;0.50;95.40;;;;;;5050708;28;20208;-75
2022/03/08 06:43:32;;;;;;;8.13;5.03;;;0.50;95.30;;;;;;5042096;28;20205;-74
2022/03/08 06:45:57;;;;;;;6.73;5.90;;;0.60;95.40;;;;;;5042146;28;20202;-74
2022/03/08 06:48:23;;;;;;;9.90;5.97;;;0.70;94.90;;;;;;5048587;28;20499;-74
2022/03/08 06:50:49;;;;;;;5.23;4.73;;;0.70;94.60;;;;;;5042304;28;20519;-74
2022/03/08 06:53:14;;;;;;;9.53;4.80;;;0.70;94.40;;;;;;5046460;28;20187;-75
2022/03/08 06:55:40;;;;;;;6.93;5.00;;;0.70;94.50;;;;;;5045657;28;20180;-75
2022/03/08 06:58:06;;;;;;;5.90;4.90;;;0.70;94.40;;;;;;5042119;28;20229;-76
2022/03/08 07:00:32;;;;;;;5.97;4.83;;;0.70;94.40;;;;;;5048573;28;20736;-76
2022/03/08 07:02:57;;;;;;;6.87;4.37;;;0.80;94.40;;;;;;5049409;28;20191;-75
2022/03/08 07:05:23;;;;;;;4.50;4.07;;;0.80;94.20;;;;;;5055293;28;20191;-74
2022/03/08 07:07:49;;;;;;;8.60;5.23;;;0.90;94.30;;;;;;5050890;28;20214;-73
2022/03/08 07:10:14;;;;;;;6.00;4.23;;;1.00;94.30;;;;;;5045938;28;20178;-72
2022/03/08 07:12:40;;;;;;;6.27;4.87;;;1.00;94.00;;;;;;5041638;28;20187;-72
2022/03/08 07:15:07;;;;;;;7.87;5.30;;;1.10;94.00;;;;;;5048047;28;20203;-74
2022/03/08 07:17:32;;;;;;;5.93;4.93;;;1.20;93.20;;;;;;5052767;28;20716;-72
2022/03/08 07:19:58;;;;;;;6.37;5.00;;;1.10;92.90;;;;;;5046692;28;20184;-72
2022/03/08 07:22:24;;;;;;;5.13;3.77;;;1.10;92.70;;;;;;5047274;28;20175;-72
2022/03/08 07:24:50;;;;;;;7.60;4.60;;;1.00;92.80;;;;;;5051984;28;20176;-72
2022/03/08 07:27:17;;;;;;;5.33;4.23;;;0.90;92.60;;;;;;5047457;28;20261;-72
2022/03/08 07:29:44;;;;;;;9.83;4.77;;;0.90;92.90;;;;;;5054537;28;21489;-73
2022/03/08 07:32:09;;;;;;;6.23;4.50;;;0.80;93.10;;;;;;5058183;28;20171;-72
2022/03/08 07:34:35;;;;;;;4.00;3.70;;;0.80;92.90;;;;;;5048658;28;20190;-73
2022/03/08 07:37:01;;;;;;;5.97;4.53;;;0.70;92.70;;;;;;5056662;28;20303;-74
2022/03/08 07:39:27;;;;;;;5.37;4.23;;;0.70;92.90;;;;;;5055349;28;20362;-72
2022/03/08 07:41:53;;;;;;;4.53;3.70;;;0.60;93.10;;;;;;5049556;28;20646;-72
2022/03/08 07:44:19;;;;;;;3.70;3.00;;;0.50;93.20;;;;;;5056152;28;20690;-73
2022/03/08 07:46:44;;;;;;;5.57;4.63;;;0.60;93.20;;;;;;5058719;28;20254;-72
2022/03/08 07:49:10;;;;;;;8.63;4.00;;;0.60;93.00;;;;;;5053868;28;20279;-72
2022/03/08 07:51:36;;;;;;;4.67;4.27;;;0.60;93.10;;;;;;5054886;28;20203;-72
2022/03/08 07:54:01;;;;;;;6.23;4.13;;;0.60;92.80;;;;;;5057257;28;20255;-72
2022/03/08 07:56:28;;;;;;;6.23;4.23;;;0.60;92.80;;;;;;5055320;28;20176;-73
2022/03/08 07:58:55;;;;;;;3.37;3.07;;;0.60;92.30;;;;;;5056527;28;20190;-73
2022/03/08 08:01:22;;;;;;;5.97;4.93;;;0.60;92.50;;;;;;5053602;28;20171;-73
2022/03/08 08:03:47;;;;;;;7.10;4.33;;;0.60;92.40;;;;;;5054125;28;20565;-73
2022/03/08 08:06:13;;;;;;;3.77;3.43;;;0.50;92.30;;;;;;5056406;28;20190;-73
2022/03/08 08:08:39;;;;;;;4.07;3.67;;;0.60;92.50;;;;;;5056058;28;20696;-73
2022/03/08 08:11:04;;;;;;;4.80;4.27;;;0.60;92.50;;;;;;5052278;28;20207;-73
2022/03/08 08:13:30;;;;;;;5.17;4.77;;;0.50;91.90;;;;;;5057038;28;20240;-73
2022/03/08 08:15:56;;;;;;;5.47;4.77;;;0.50;91.90;;;;;;5052712;28;20179;-73
2022/03/08 08:18:22;;;;;;;7.13;4.53;;;0.40;92.00;;;;;;5055572;28;20184;-73
2022/03/08 08:20:47;;;;;;;5.33;4.43;;;0.40;92.00;;;;;;5055580;28;20167;-73
2022/03/08 08:23:13;;;;;;;4.97;4.33;;;0.40;92.60;;;;;;5055485;28;20175;-73
2022/03/08 08:25:39;;;;;;;7.73;4.67;;;0.50;92.00;;;;;;5053221;28;20239;-73
2022/03/08 08:28:06;;;;;;;6.20;4.87;;;0.50;92.30;;;;;;5060495;28;20215;-73
2022/03/08 08:30:33;;;;;;;8.43;5.07;;;0.50;92.30;;;;;;5057446;28;20728;-73
2022/03/08 08:32:59;;;;;;;7.90;4.80;;;0.50;92.20;;;;;;5047004;28;20188;-73
2022/03/08 08:35:25;;;;;;;11.80;4.63;;;0.50;92.40;;;;;;5050046;28;20229;-73
2022/03/08 08:37:51;;;;;;;6.10;4.03;;;0.60;92.30;;;;;;5041913;28;20266;-73
2022/03/08 08:40:17;;;;;;;7.70;5.10;;;0.60;91.80;;;;;;5047260;28;20183;-73
2022/03/08 08:42:42;;;;;;;5.77;4.07;;;0.60;91.70;;;;;;5052248;28;20180;-73
2022/03/08 08:45:09;;;;;;;5.40;4.10;;;0.60;91.60;;;;;;5045030;28;20230;-74
2022/03/08 08:47:35;;;;;;;7.33;4.63;;;0.70;91.80;;;;;;5052852;28;20207;-72
2022/03/08 08:50:01;;;;;;;5.57;4.30;;;0.70;91.70;;;;;;5050197;28;20190;-73
2022/03/08 08:52:26;;;;;;;5.20;4.43;;;0.70;91.60;;;;;;5049478;28;20167;-73
2022/03/08 08:54:52;;;;;;;7.27;4.80;;;0.70;91.50;;;;;;5046330;28;20183;-73
2022/03/08 08:57:18;;;;;;;6.63;4.30;;;0.70;91.20;;;;;;5044403;28;20652;-74
2022/03/08 08:59:43;;;;;;;8.00;5.57;;;0.70;91.10;;;;;;5040090;28;20176;-75
2022/03/08 09:02:09;;;;;;;6.53;5.13;;;0.60;90.00;;;;;;5042179;28;20264;-74
2022/03/08 09:04:36;;;;;;;5.27;4.23;;;0.40;89.50;;;;;;5043067;28;20188;-74
2022/03/08 09:07:02;;;;;;;5.93;5.43;;;0.30;90.20;;;;;;5048821;28;20218;-74
2022/03/08 09:09:28;;;;;;;11.40;5.77;;;0.30;90.50;;;;;;5047748;28;20233;-75
2022/03/08 09:11:53;;;;;;;8.47;6.13;;;0.20;90.50;;;;;;5049828;28;20630;-73
2022/03/08 09:14:19;;;;;;;6.63;5.17;;;0.20;90.30;;;;;;5048135;28;20175;-74
2022/03/08 09:16:45;;;;;;;13.10;6.33;;;0.20;90.50;;;;;;5050340;28;20244;-73
2022/03/08 09:19:11;;;;;;;7.77;5.73;;;0.20;90.60;;;;;;5047463;28;20317;-74
2022/03/08 09:21:38;;;;;;;10.43;6.07;;;0.20;90.00;;;;;;5054824;28;20183;-72
2022/03/08 09:24:04;;;;;;;8.33;5.73;;;0.20;89.70;;;;;;5053893;28;20223;-73
2022/03/08 09:26:30;;;;;;;11.00;6.13;;;0.10;89.40;;;;;;5045472;28;20179;-74
2022/03/08 09:28:56;;;;;;;10.07;6.03;;;0.20;89.90;;;;;;5050901;28;20216;-75
2022/03/08 09:31:22;;;;;;;11.03;6.50;;;0.10;89.80;;;;;;5049146;28;20592;-73
2022/03/08 09:33:48;;;;;;;15.50;6.83;;;0.10;90.30;;;;;;5050671;28;20542;-74
2022/03/08 09:36:14;;;;;;;9.43;5.23;;;0.00;89.90;;;;;;5050387;28;20490;-74
2022/03/08 09:38:39;;;;;;;7.40;5.80;;;0.00;90.50;;;;;;5047316;28;20540;-74
2022/03/08 09:41:06;;;;;;;11.43;5.47;;;0.10;90.50;;;;;;5048231;28;20180;-74
2022/03/08 09:43:36;;;;;;;9.27;6.00;;;0.10;90.20;;;;;;5047353;28;20710;-73
2022/03/08 09:46:02;;;;;;;8.60;6.43;;;0.00;89.70;;;;;;5045491;28;20266;-74
2022/03/08 09:48:28;;;;;;;7.20;6.13;;;0.00;89.80;;;;;;5049123;28;20250;-74
2022/03/08 09:50:53;;;;;;;9.60;5.47;;;0.10;90.00;;;;;;5048822;28;20192;-74
2022/03/08 09:53:20;;;;;;;8.47;5.80;;;0.10;89.30;;;;;;5049666;28;20189;-74
2022/03/08 09:55:45;;;;;;;8.27;5.87;;;0.10;89.60;;;;;;5047416;28;20236;-74
2022/03/08 09:58:11;;;;;;;7.03;6.23;;;0.20;89.70;;;;;;5047488;28;20278;-73
2022/03/08 10:00:37;;;;;;;11.43;6.40;;;0.30;89.60;;;;;;5050115;28;20175;-73
2022/03/08 10:03:10;;;;;;;13.80;6.70;;;0.40;89.00;;;;;;5048581;28;20446;-74
2022/03/08 10:05:43;;;;;;;10.70;6.27;;;0.40;88.60;;;;;;5044834;28;20602;-74
2022/03/08 10:08:13;;;;;;;12.53;6.37;;;0.50;88.80;;;;;;5047848;28;20234;-73
2022/03/08 10:10:58;;;;;;;9.50;5.73;;;0.60;88.60;;;;;;5044942;28;20183;-73
2022/03/08 10:13:29;;;;;;;14.50;6.23;;;0.60;88.10;;;;;;5048413;28;20610;-73
2022/03/08 10:16:05;;;;;;;7.30;6.13;;;0.60;88.10;;;;;;5047849;28;20185;-73
2022/03/08 10:18:32;;;;;;;9.07;5.77;;;0.80;88.40;;;;;;5049443;28;20187;-73
2022/03/08 10:20:58;;;;;;;9.80;7.17;;;0.80;88.30;;;;;;5049993;28;20253;-75
2022/03/08 10:23:24;;;;;;;10.57;6.83;;;0.80;87.90;;;;;;5048045;28;20183;-73
2022/03/08 10:25:49;;;;;;;17.07;7.17;;;0.80;87.70;;;;;;5046891;28;20995;-74
2022/03/08 10:28:15;;;;;;;10.43;6.27;;;0.70;87.70;;;;;;5046867;28;20215;-73
2022/03/08 10:30:44;;;;;;;14.50;7.73;;;0.60;87.80;;;;;;5046751;28;20675;-73
2022/03/08 10:33:10;;;;;;;15.33;6.70;;;0.70;88.40;;;;;;5051273;28;20262;-73
2022/03/08 10:35:42;;;;;;;12.30;6.50;;;0.70;88.70;;;;;;5046280;28;20285;-73
2022/03/08 10:38:12;;;;;;;14.73;7.00;;;0.80;88.50;;;;;;5042626;28;20219;-72
2022/03/08 10:40:38;;;;;;;11.13;6.70;;;0.80;88.40;;;;;;5047099;28;20551;-74
2022/03/08 10:43:22;;;;;;;11.97;6.80;;;1.00;88.70;;;;;;5050154;28;20175;-73
2022/03/08 10:45:50;;;;;;;12.97;7.77;;;1.10;87.80;;;;;;5050015;28;20348;-73
2022/03/08 10:48:18;;;;;;;11.37;6.53;;;1.20;87.30;;;;;;5049687;28;20215;-74
2022/03/08 10:50:46;;;;;;;13.53;6.53;;;1.30;87.30;;;;;;5046458;28;20190;-72
2022/03/08 10:53:13;;;;;;;10.20;6.50;;;1.30;86.60;;;;;;5048725;28;20305;-73
2022/03/08 10:55:46;;;;;;;10.57;6.60;;;1.40;86.50;;;;;;5046295;28;20188;-73
2022/03/08 10:58:14;;;;;;;11.77;7.07;;;1.40;86.30;;;;;;5045645;28;20190;-73
2022/03/08 11:00:55;;;;;;;10.57;6.70;;;1.50;86.20;;;;;;5046079;28;20253;-73
2022/03/08 11:03:25;;;;;;;11.60;6.40;;;1.70;86.00;;;;;;5049407;28;20204;-73
2022/03/08 11:05:53;;;;;;;7.47;5.67;;;1.70;85.20;;;;;;5048712;28;20301;-73
2022/03/08 11:08:20;;;;;;;9.30;6.07;;;1.80;84.90;;;;;;5049003;28;20215;-72
2022/03/08 11:10:46;;;;;;;8.30;6.33;;;1.80;84.50;;;;;;5045620;28;20212;-72
2022/03/08 11:13:13;;;;;;;12.40;8.30;;;1.80;84.40;;;;;;5050252;28;20175;-72
2022/03/08 11:15:41;;;;;;;9.50;6.67;;;1.80;84.10;;;;;;5051610;28;20206;-73
2022/03/08 11:18:11;;;;;;;11.00;6.73;;;1.70;84.20;;;;;;5051304;28;20215;-73
2022/03/08 11:20:39;;;;;;;14.57;7.90;;;1.70;84.00;;;;;;5050429;28;20795;-73
2022/03/08 11:23:05;;;;;;;12.90;8.17;;;1.70;84.10;;;;;;5051811;28;20627;-73
2022/03/08 11:25:57;;;;;;;13.30;7.30;;;1.70;83.80;;;;;;5048661;28;20806;-72
2022/03/08 11:28:23;;;;;;;10.17;6.50;;;1.70;83.90;;;;;;5047679;28;20483;-73
2022/03/08 11:30:53;;;;;;;11.20;6.60;;;1.80;83.90;;;;;;5050198;28;20817;-73
2022/03/08 11:33:40;;;;;;;11.23;7.87;;;1.70;82.80;;;;;;5048779;28;20183;-73
2022/03/08 11:36:36;;;;;;;9.70;6.70;;;1.80;83.30;;;;;;5056705;28;20186;-73
2022/03/08 11:39:19;;;;;;;12.50;6.07;;;1.90;82.90;;;;;;5011142;28;20282;-73
2022/03/08 11:41:55;;;;;;;8.70;6.10;;;2.00;82.40;;;;;;4999628;28;20300;-72
2022/03/08 11:44:24;;;;;;;14.50;7.77;;;2.10;82.40;;;;;;4991382;28;20215;-72
2022/03/08 11:47:02;;;;;;;10.77;7.37;;;2.20;81.80;;;;;;5012087;28;20184;-73
2022/03/08 11:49:39;;;;;;;15.80;7.73;;;2.30;81.80;;;;;;5008241;28;20611;-73
2022/03/08 11:52:33;;;;;;;12.37;7.63;;;2.30;81.70;;;;;;5004434;28;20780;-72
2022/03/08 11:55:03;;;;;;;8.43;6.43;;;2.40;81.70;;;;;;5013470;28;20184;-73
2022/03/08 11:57:47;;;;;;;9.17;5.50;;;2.60;82.60;;;;;;5004524;28;20184;-72
2022/03/08 12:00:32;;;;;;;9.67;5.80;;;2.80;82.90;;;;;;5004356;28;20181;-73
2022/03/08 12:03:01;;;;;;;9.50;5.67;;;3.00;82.60;;;;;;4994188;28;20850;-73
2022/03/08 12:05:42;;;;;;;11.77;6.40;;;3.10;81.10;;;;;;5006775;28;20192;-73
2022/03/08 12:08:28;;;;;;;9.83;6.27;;;3.20;81.10;;;;;;5007557;28;20243;-74
2022/03/08 12:11:00;;;;;;;10.97;7.33;;;3.40;80.60;;;;;;4899883;29;20208;-73
2022/03/08 12:13:28;;;;;;;11.50;6.17;;;3.40;79.70;;;;;;4902748;29;20196;-73
2022/03/08 12:16:08;;;;;;;11.13;6.20;;;3.40;79.40;;;;;;4942093;28;20661;-73
2022/03/08 12:18:34;;;;;;;18.03;7.73;;;3.40;80.20;;;;;;4957174;28;20220;-73
2022/03/08 12:21:17;;;;;;;9.90;6.17;;;3.40;78.80;;;;;;4958391;28;20684;-73
2022/03/08 12:24:03;;;;;;;9.13;5.77;;;3.40;79.90;;;;;;4959666;28;20289;-72
2022/03/08 12:26:30;;;;;;;10.50;5.83;;;3.50;80.90;;;;;;4962167;28;20752;-73
2022/03/08 12:29:02;;;;;;;14.30;6.87;;;3.60;80.20;;;;;;4959643;28;20226;-73
2022/03/08 12:31:28;;;;;;;6.93;5.07;;;3.60;80.20;;;;;;4956949;28;20702;-72
2022/03/08 12:34:06;;;;;;;9.23;5.97;;;3.70;79.90;;;;;;4960802;28;20266;-73
2022/03/08 12:36:35;;;;;;;10.03;6.77;;;3.80;80.30;;;;;;4959885;28;20190;-72
2022/03/08 12:39:02;;;;;;;8.20;5.20;;;3.90;80.70;;;;;;4959780;28;20190;-73
2022/03/08 12:41:27;;;;;;;10.70;6.30;;;4.00;80.70;;;;;;4957287;28;20225;-72
2022/03/08 12:44:02;;;;;;;11.43;6.97;;;4.00;79.00;;;;;;4956380;28;21092;-72
2022/03/08 12:46:28;;;;;;;13.17;6.77;;;4.10;78.90;;;;;;4956674;28;20190;-72
2022/03/08 12:48:54;;;;;;;9.67;6.60;;;4.10;78.80;;;;;;5035291;28;20594;-71
2022/03/08 12:51:24;;;;;;;14.27;7.17;;;4.10;78.30;;;;;;5038177;28;20211;-72
2022/03/08 12:54:00;;;;;;;7.93;6.13;;;3.90;77.70;;;;;;5046831;28;20312;-72
2022/03/08 12:56:27;;;;;;;10.50;7.73;;;3.80;78.20;;;;;;5047267;28;20179;-73
2022/03/08 12:59:04;;;;;;;13.07;7.03;;;3.70;77.90;;;;;;5043896;28;20286;-73
2022/03/08 13:01:29;;;;;;;10.50;7.20;;;3.50;78.70;;;;;;5043717;28;20758;-72